Terminal Aerodrome Forecast
Issued by NWS

Home | Current Version | Previous Version | Text Only | Print | Product List | Glossary On
Versions: 1 2 3 4 5 6 7 8 9 10 11 12 13 14 15 16 17 18 19 20 21 22
000
FTUS41 KBOX 262325
TAFBAF
TAF
KBAF 262325Z 2700/2724 35003KT P6SM OVC035
     FM270300 00000KT P6SM -RA OVC035
     FM270600 00000KT P6SM -RA OVC015
     FM271000 05004KT 1 1/2SM -RA BR OVC008
     FM272200 00000KT 5SM BR OVC010=

USA.gov is the U.S. government's official web portal to all federal, state and local government web resources and services.